createdAt,value
2017-08-08T00:00:01.576Z,9.57
2017-08-08T00:02:35.805Z,8.93
2017-08-08T00:05:09.943Z,8.90
2017-08-08T00:07:44.073Z,9.27
2017-08-08T00:10:18.320Z,8.10
2017-08-08T00:12:52.440Z,9.10
2017-08-08T00:15:26.793Z,9.10
2017-08-08T00:18:00.896Z,8.20
2017-08-08T00:20:35.160Z,9.30
2017-08-08T00:23:09.397Z,9.80
2017-08-08T00:25:43.992Z,8.40
2017-08-08T00:28:18.176Z,8.70
2017-08-08T00:30:52.428Z,8.70
2017-08-08T00:33:26.757Z,8.77
2017-08-08T00:35:55.716Z,8.80
2017-08-08T00:38:24.905Z,9.20
2017-08-08T00:40:53.637Z,10.40
2017-08-08T00:43:21.913Z,9.00
2017-08-08T00:45:50.667Z,8.30
2017-08-08T00:48:19.024Z,9.33
2017-08-08T00:50:52.807Z,9.33
2017-08-08T00:53:21.620Z,9.53
2017-08-08T00:55:55.085Z,9.40
2017-08-08T00:58:23.381Z,9.00
2017-08-08T01:00:52.452Z,9.57
2017-08-08T01:03:21.711Z,10.60
2017-08-08T01:05:50.582Z,9.30
2017-08-08T01:08:19.365Z,8.77
2017-08-08T01:10:47.949Z,10.70
2017-08-08T01:13:16.192Z,8.60
2017-08-08T01:15:45.629Z,10.70
2017-08-08T01:18:13.892Z,8.43
2017-08-08T01:20:42.253Z,7.77
2017-08-08T01:23:10.784Z,9.90
2017-08-08T01:25:39.464Z,9.53
2017-08-08T01:28:08.090Z,9.23
2017-08-08T01:30:36.394Z,10.33
2017-08-08T01:33:06.240Z,10.83
2017-08-08T01:35:36.225Z,10.87
2017-08-08T01:38:04.563Z,9.83
2017-08-08T01:40:32.897Z,9.63
2017-08-08T01:43:01.763Z,10.17
2017-08-08T01:45:30.018Z,11.07
2017-08-08T01:47:58.300Z,11.30
2017-08-08T01:50:27.401Z,10.00
2017-08-08T01:52:56.337Z,11.43
2017-08-08T01:55:25.187Z,9.63
2017-08-08T01:57:53.833Z,10.30
2017-08-08T02:00:28.356Z,9.93
2017-08-08T02:02:57.055Z,10.80
2017-08-08T02:05:26.108Z,10.60
2017-08-08T02:07:54.397Z,10.63
2017-08-08T02:10:22.764Z,10.70
2017-08-08T02:12:52.143Z,11.03
2017-08-08T02:15:20.710Z,10.70
2017-08-08T02:17:48.978Z,10.40
2017-08-08T02:20:18.129Z,10.80
2017-08-08T02:22:47.155Z,10.90
2017-08-08T02:25:15.918Z,11.00
2017-08-08T02:27:44.616Z,12.13
2017-08-08T02:30:12.976Z,11.63
2017-08-08T02:32:41.408Z,11.20
2017-08-08T02:35:10.583Z,11.30
2017-08-08T02:37:39.233Z,11.23
2017-08-08T02:40:08.529Z,12.53
2017-08-08T02:42:37.277Z,14.43
2017-08-08T02:45:06.906Z,14.43
2017-08-08T02:47:35.173Z,11.93
2017-08-08T02:50:03.870Z,12.50
2017-08-08T02:52:32.708Z,12.93
2017-08-08T02:55:01.321Z,11.97
2017-08-08T02:57:29.961Z,12.97
2017-08-08T02:59:58.889Z,12.73
2017-08-08T03:02:27.192Z,12.77
2017-08-08T03:04:55.806Z,12.90
2017-08-08T03:07:24.833Z,12.70
2017-08-08T03:09:53.231Z,13.70
2017-08-08T03:12:21.803Z,12.83
2017-08-08T03:14:50.645Z,12.60
2017-08-08T03:17:19.721Z,12.80
2017-08-08T03:19:47.979Z,13.07
2017-08-08T03:22:16.252Z,15.17
2017-08-08T03:24:44.777Z,15.80
2017-08-08T03:27:13.285Z,15.67
2017-08-08T03:29:47.644Z,14.83
2017-08-08T03:32:20.675Z,14.30
2017-08-08T03:34:55.570Z,15.20
2017-08-08T03:37:29.911Z,15.30
2017-08-08T03:39:58.297Z,15.43
2017-08-08T03:42:26.622Z,15.67
2017-08-08T03:44:55.068Z,15.87
2017-08-08T03:47:23.464Z,17.93
2017-08-08T03:49:51.946Z,16.20
2017-08-08T03:52:21.214Z,14.57
2017-08-08T03:54:50.035Z,19.53
2017-08-08T03:57:18.623Z,18.47
2017-08-08T03:59:47.295Z,15.53
2017-08-08T04:02:16.492Z,13.63
2017-08-08T04:04:45.612Z,15.77
2017-08-08T04:07:14.405Z,14.13
2017-08-08T04:09:43.039Z,16.53
2017-08-08T04:12:11.943Z,14.17
2017-08-08T04:14:46.093Z,14.00
2017-08-08T04:17:14.808Z,14.50
2017-08-08T04:19:43.609Z,15.23
2017-08-08T04:22:12.976Z,14.13
2017-08-08T04:24:41.456Z,14.57
2017-08-08T04:27:10.158Z,14.47
2017-08-08T04:29:38.968Z,16.83
2017-08-08T04:32:07.679Z,18.90
2017-08-08T04:34:37.595Z,14.73
2017-08-08T04:37:07.872Z,16.90
2017-08-08T04:39:36.472Z,15.50
2017-08-08T04:42:04.740Z,13.77
2017-08-08T04:44:33.765Z,16.77
2017-08-08T04:47:03.320Z,15.43
2017-08-08T04:49:31.591Z,15.10
2017-08-08T04:52:00.152Z,14.37
2017-08-08T04:54:29.106Z,15.40
2017-08-08T04:56:57.588Z,13.70
2017-08-08T04:59:25.852Z,14.70
2017-08-08T05:01:54.295Z,14.40
2017-08-08T05:04:23.779Z,13.60
2017-08-08T05:06:52.155Z,14.33
2017-08-08T05:09:20.455Z,15.50
2017-08-08T05:11:48.835Z,14.00
2017-08-08T05:14:17.457Z,14.57
2017-08-08T05:16:46.833Z,14.57
2017-08-08T05:19:17.456Z,13.50
2017-08-08T05:21:45.797Z,14.03
2017-08-08T05:24:14.071Z,16.90
2017-08-08T05:26:43.131Z,12.40
2017-08-08T05:29:11.967Z,16.40
2017-08-08T05:31:40.724Z,14.30
2017-08-08T05:34:10.501Z,13.50
2017-08-08T05:36:39.308Z,13.63
2017-08-08T05:39:09.182Z,15.40
2017-08-08T05:41:37.782Z,13.87
2017-08-08T05:44:06.731Z,13.40
2017-08-08T05:46:35.063Z,12.77
2017-08-08T05:49:04.236Z,12.60
2017-08-08T05:51:33.167Z,12.30
2017-08-08T05:54:01.807Z,12.37
2017-08-08T05:56:30.075Z,11.47
2017-08-08T05:59:04.655Z,12.27
2017-08-08T06:01:38.813Z,10.87
2017-08-08T06:04:07.390Z,9.67
2017-08-08T06:06:37.274Z,9.07
2017-08-08T06:09:06.308Z,10.07
2017-08-08T06:11:34.628Z,9.50
2017-08-08T06:14:03.227Z,10.13
2017-08-08T06:16:31.740Z,9.00
2017-08-08T06:19:00.734Z,7.80
2017-08-08T06:21:29.132Z,10.07
2017-08-08T06:23:58.790Z,6.77
2017-08-08T06:26:27.478Z,7.87
2017-08-08T06:28:56.816Z,9.13
2017-08-08T06:31:31.196Z,8.63
2017-08-08T06:33:59.905Z,8.33
2017-08-08T06:36:29.373Z,7.50
2017-08-08T06:38:58.132Z,8.07
2017-08-08T06:41:26.588Z,7.20
2017-08-08T06:43:56.337Z,7.90
2017-08-08T06:46:24.829Z,7.00
2017-08-08T06:48:54.406Z,6.33
2017-08-08T06:51:23.703Z,6.90
2017-08-08T06:53:57.965Z,5.67
2017-08-08T06:59:10.410Z,5.40
2017-08-08T07:01:45.548Z,6.23
2017-08-08T07:06:58.718Z,5.60
2017-08-08T07:09:34.773Z,5.13
2017-08-08T07:12:08.972Z,5.90
2017-08-08T07:14:43.706Z,5.40
2017-08-08T07:19:57.037Z,5.00
2017-08-08T07:22:31.966Z,5.43
2017-08-08T07:30:23.544Z,5.23
2017-08-08T07:32:59.482Z,5.73
2017-08-08T07:35:35.906Z,4.03
2017-08-08T07:38:12.085Z,4.90
2017-08-08T07:40:46.272Z,4.90
2017-08-08T07:43:20.653Z,4.60
2017-08-08T07:48:33.432Z,5.73
2017-08-08T07:53:48.494Z,4.57
2017-08-08T07:56:22.996Z,4.93
2017-08-08T07:58:58.057Z,4.33
2017-08-08T08:04:16.760Z,4.90
2017-08-08T08:09:29.485Z,4.83
2017-08-08T08:12:05.911Z,4.80
2017-08-08T08:14:43.768Z,5.03
2017-08-08T08:19:56.382Z,4.50
2017-08-08T08:22:31.709Z,4.60
2017-08-08T08:25:07.751Z,5.00
2017-08-08T08:27:42.456Z,4.43
2017-08-08T08:30:16.888Z,4.40
2017-08-08T08:32:51.495Z,4.70
2017-08-08T08:35:25.847Z,4.13
2017-08-08T08:38:00.560Z,4.07
2017-08-08T08:43:17.145Z,3.30
2017-08-08T08:48:29.968Z,4.10
2017-08-08T08:53:46.780Z,3.90
2017-08-08T08:59:00.241Z,3.63
2017-08-08T09:06:52.736Z,4.10
2017-08-08T09:14:45.591Z,4.80
2017-08-08T09:17:20.377Z,3.87
2017-08-08T09:22:34.046Z,3.20
2017-08-08T09:27:47.274Z,4.10
2017-08-08T09:30:22.480Z,3.67
2017-08-08T09:32:58.418Z,3.40
2017-08-08T09:35:35.571Z,3.70
2017-08-08T09:38:10.269Z,3.47
2017-08-08T09:46:03.762Z,3.03
2017-08-08T09:51:17.459Z,3.30
2017-08-08T09:53:52.718Z,3.90
2017-08-08T10:01:44.265Z,3.57
2017-08-08T10:04:20.508Z,3.40
2017-08-08T10:06:55.532Z,3.60
2017-08-08T10:12:11.271Z,3.00
2017-08-08T10:14:45.757Z,3.33
2017-08-08T10:17:20.018Z,4.40
2017-08-08T10:27:50.825Z,2.90
2017-08-08T10:35:42.027Z,3.90
2017-08-08T10:40:58.530Z,3.50
2017-08-08T10:43:36.741Z,3.30
2017-08-08T10:46:11.711Z,3.80
2017-08-08T10:48:46.927Z,3.50
2017-08-08T10:51:23.039Z,3.77
2017-08-08T10:53:58.675Z,3.70
2017-08-08T10:56:33.482Z,3.80
2017-08-08T11:01:46.368Z,2.97
2017-08-08T11:36:15.226Z,3.33
2017-08-08T11:46:45.375Z,3.10
2017-08-08T11:49:19.733Z,3.10
2017-08-08T11:51:54.344Z,4.30
2017-08-08T11:57:12.661Z,3.47
2017-08-08T12:02:26.515Z,3.80
2017-08-08T12:05:05.141Z,3.20
2017-08-08T12:23:47.666Z,5.90
2017-08-08T12:45:19.169Z,8.50
2017-08-08T12:55:54.196Z,7.20
2017-08-08T12:58:28.550Z,7.13
2017-08-08T13:03:42.147Z,7.27
2017-08-08T13:08:58.773Z,6.20
2017-08-08T13:11:34.208Z,6.33
2017-08-08T13:16:47.535Z,5.80
2017-08-08T13:19:25.440Z,5.80
2017-08-08T13:22:00.313Z,5.80
2017-08-08T13:29:52.477Z,6.40
2017-08-08T13:40:28.390Z,7.27
2017-08-08T14:01:39.443Z,6.00
2017-08-08T14:04:14.419Z,6.53
2017-08-08T14:06:48.900Z,6.50
2017-08-08T14:09:25.051Z,6.53
2017-08-08T14:11:59.378Z,5.97
2017-08-08T14:17:14.582Z,7.10
2017-08-08T14:22:28.150Z,7.73
2017-08-08T14:27:44.497Z,12.60
2017-08-08T14:30:19.432Z,8.47
2017-08-08T14:32:53.893Z,7.37
2017-08-08T14:38:06.744Z,6.53
2017-08-08T14:40:41.886Z,5.13
2017-08-08T14:45:58.276Z,5.40
2017-08-08T14:48:34.426Z,6.17
2017-08-08T14:51:14.926Z,5.40
2017-08-08T14:53:53.484Z,5.50
2017-08-08T14:59:06.787Z,6.00
2017-08-08T15:01:41.531Z,5.60
2017-08-08T15:04:15.882Z,6.20
2017-08-08T15:09:28.975Z,7.23
2017-08-08T15:12:04.892Z,6.30
2017-08-08T15:14:39.420Z,5.97
2017-08-08T15:17:14.230Z,5.73
2017-08-08T15:22:27.908Z,4.90
2017-08-08T15:25:02.364Z,4.70
2017-08-08T15:27:37.289Z,4.83
2017-08-08T15:30:11.651Z,4.93
2017-08-08T15:32:46.882Z,3.93
2017-08-08T15:35:21.433Z,4.60
2017-08-08T15:37:55.961Z,5.67
2017-08-08T15:45:47.834Z,2.70
2017-08-08T15:48:22.507Z,3.20
2017-08-08T15:50:59.470Z,2.70
2017-08-08T15:56:14.250Z,3.00
2017-08-08T16:01:31.938Z,3.00
2017-08-08T16:06:48.090Z,2.67
2017-08-08T16:12:01.790Z,2.47
2017-08-08T16:14:36.214Z,3.70
2017-08-08T16:17:12.205Z,2.10
2017-08-08T16:19:48.169Z,2.40
2017-08-08T16:25:03.238Z,1.90
2017-08-08T16:35:37.718Z,2.40
2017-08-08T17:36:29.840Z,4.67
2017-08-08T18:13:26.384Z,4.40
2017-08-08T18:15:55.176Z,4.20
2017-08-08T18:33:51.537Z,3.70
2017-08-08T18:38:52.625Z,3.50
2017-08-08T18:46:27.177Z,4.20
2017-08-08T18:56:36.887Z,5.87
2017-08-08T18:59:05.317Z,6.53
2017-08-08T19:01:33.717Z,4.50
2017-08-08T19:04:02.761Z,4.30
2017-08-08T19:06:34.692Z,6.13
2017-08-08T19:09:03.426Z,4.17
2017-08-08T19:14:06.710Z,3.53
2017-08-08T19:16:38.849Z,3.23
2017-08-08T19:21:40.673Z,2.90
2017-08-08T19:24:09.710Z,2.00
2017-08-08T19:26:39.732Z,1.63
2017-08-08T19:29:08.155Z,2.37
2017-08-08T19:44:32.159Z,5.70
2017-08-08T19:47:00.545Z,5.43
2017-08-08T19:52:01.554Z,5.40
2017-08-08T19:54:29.824Z,5.50
2017-08-08T19:56:58.189Z,5.50
2017-08-08T19:59:26.608Z,5.03
2017-08-08T20:04:31.870Z,4.50
2017-08-08T20:09:32.844Z,5.20
2017-08-08T20:12:01.565Z,5.00
2017-08-08T20:17:02.564Z,2.20
2017-08-08T20:19:34.414Z,3.00
2017-08-08T20:22:02.825Z,3.40
2017-08-08T20:24:31.145Z,1.77
2017-08-08T20:27:01.073Z,2.77
2017-08-08T20:29:30.245Z,3.60
2017-08-08T20:32:00.020Z,3.03
2017-08-08T20:37:01.009Z,2.63
2017-08-08T20:39:29.928Z,2.83
2017-08-08T20:44:31.730Z,3.70
2017-08-08T20:47:00.054Z,3.43
2017-08-08T20:49:29.168Z,3.13
2017-08-08T20:51:57.909Z,3.73
2017-08-08T20:54:27.170Z,2.30
2017-08-08T20:56:55.653Z,2.80
2017-08-08T20:59:25.681Z,2.47
2017-08-08T21:01:54.453Z,2.20
2017-08-08T21:04:22.954Z,2.27
2017-08-08T21:06:51.370Z,2.50
2017-08-08T21:09:19.808Z,2.10
2017-08-08T21:11:48.117Z,1.80
2017-08-08T21:14:16.396Z,1.90
2017-08-08T21:16:44.780Z,2.17
2017-08-08T21:19:13.629Z,2.57
2017-08-08T21:21:41.928Z,2.30
2017-08-08T21:24:12.009Z,1.87
2017-08-08T21:26:40.285Z,1.90
2017-08-08T21:29:09.080Z,1.70
2017-08-08T21:31:37.420Z,2.60
2017-08-08T21:34:06.123Z,2.37
2017-08-08T21:36:34.395Z,1.83
2017-08-08T21:39:03.609Z,1.80
2017-08-08T21:41:32.013Z,2.10
2017-08-08T21:44:00.251Z,1.63
2017-08-08T21:46:28.639Z,1.50
2017-08-08T21:48:56.920Z,2.07
2017-08-08T21:51:25.543Z,1.80
2017-08-08T21:53:54.231Z,2.00
2017-08-08T21:56:22.534Z,1.90
2017-08-08T21:58:51.314Z,2.27
2017-08-08T22:01:19.785Z,2.63
2017-08-08T22:03:48.115Z,2.80
2017-08-08T22:06:16.437Z,2.00
2017-08-08T22:08:44.695Z,2.57
2017-08-08T22:11:13.161Z,2.70
2017-08-08T22:13:41.488Z,2.23
2017-08-08T22:16:09.893Z,2.23
2017-08-08T22:18:38.143Z,2.00
2017-08-08T22:21:06.466Z,3.20
2017-08-08T22:23:34.817Z,2.30
2017-08-08T22:26:03.067Z,2.60
2017-08-08T22:28:31.313Z,2.37
2017-08-08T22:30:59.973Z,2.27
2017-08-08T22:33:28.211Z,1.87
2017-08-08T22:35:56.501Z,2.03
2017-08-08T22:38:24.852Z,1.97
2017-08-08T22:40:53.146Z,2.13
2017-08-08T22:43:21.784Z,1.97
2017-08-08T22:45:52.665Z,2.10
2017-08-08T22:48:21.000Z,2.20
2017-08-08T22:50:49.341Z,2.70
2017-08-08T22:53:17.591Z,1.90
2017-08-08T22:55:45.858Z,2.03
2017-08-08T22:58:14.283Z,1.80
2017-08-08T23:00:42.912Z,1.77
2017-08-08T23:03:11.412Z,2.00
2017-08-08T23:05:39.690Z,2.23
2017-08-08T23:08:07.981Z,2.03
2017-08-08T23:10:36.358Z,2.00
2017-08-08T23:13:04.676Z,2.70
2017-08-08T23:15:33.177Z,1.60
2017-08-08T23:18:01.505Z,1.60
2017-08-08T23:20:29.769Z,1.60
2017-08-08T23:22:58.044Z,1.50
2017-08-08T23:25:26.361Z,1.20
2017-08-08T23:27:54.944Z,2.40
2017-08-08T23:30:23.292Z,1.50
2017-08-08T23:32:51.571Z,1.63
2017-08-08T23:35:20.732Z,1.70
2017-08-08T23:37:49.115Z,1.90
2017-08-08T23:40:17.404Z,2.20
2017-08-08T23:42:45.715Z,2.47
2017-08-08T23:45:14.262Z,2.20
2017-08-08T23:47:42.696Z,1.50
2017-08-08T23:50:11.032Z,1.30
2017-08-08T23:52:39.327Z,1.73
2017-08-08T23:55:07.645Z,1.80
2017-08-08T23:57:36.020Z,1.80
